Time;durP1;ratioP1;P1;durP2;ratioP2;P2;SDS_P1;SDS_P2;PMS_P1;PMS_P2;Temp;Humidity;BMP_temperature;BMP_pressure;BME280_temperature;BME280_humidity;BME280_pressure;Samples;Min_cycle;Max_cycle;Signal;HPM_P1;HPM_P2
2022/09/07 00:00:48;;;;;;;;;3.25;3.25;;;;;23.28;54.56;100565.84;4977564;28;45517;-64
2022/09/07 00:03:14;;;;;;;;;3.25;2.25;;;;;23.26;54.46;100570.50;4977715;28;45441;-63
2022/09/07 00:05:45;;;;;;;;;3.25;3.25;;;;;23.21;54.94;100553.97;4977637;28;45498;-64
2022/09/07 00:08:11;;;;;;;;;4.00;3.00;;;;;23.22;55.23;100562.88;4977370;28;45434;-63
2022/09/07 00:10:37;;;;;;;;;3.00;3.00;;;;;23.23;55.48;100562.72;4977347;28;45563;-63
2022/09/07 00:13:03;;;;;;;;;4.00;4.00;;;;;23.21;55.48;100566.53;4977667;28;45370;-63
2022/09/07 00:15:29;;;;;;;;;3.50;3.00;;;;;23.21;55.40;100567.38;4977892;28;45459;-63
2022/09/07 00:17:54;;;;;;;;;3.25;3.25;;;;;23.18;55.71;100572.19;4977330;28;45424;-63
2022/09/07 00:20:19;;;;;;;;;2.75;2.75;;;;;23.14;56.08;100561.72;4977386;28;45353;-63
2022/09/07 00:22:45;;;;;;;;;2.75;1.25;;;;;23.16;56.08;100566.97;4977486;28;45330;-63
2022/09/07 00:25:10;;;;;;;;;5.00;5.00;;;;;23.14;56.09;100572.47;4977316;28;45537;-63
2022/09/07 00:27:36;;;;;;;;;3.25;3.25;;;;;23.07;56.43;100559.72;4977028;28;46143;-63
2022/09/07 00:30:01;;;;;;;;;3.00;3.00;;;;;23.06;56.27;100563.41;4976978;28;45420;-64
2022/09/07 00:32:27;;;;;;;;;2.00;2.00;;;;;23.05;56.30;100559.88;4977153;28;45476;-63
2022/09/07 00:34:52;;;;;;;;;5.00;5.00;;;;;23.06;56.66;100568.75;4977205;28;45468;-63
2022/09/07 00:37:18;;;;;;;;;5.00;5.00;;;;;23.05;56.91;100562.56;4976915;28;45453;-63
2022/09/07 00:39:43;;;;;;;;;5.00;5.00;;;;;23.07;56.80;100568.59;4977013;28;45422;-63
2022/09/07 00:42:08;;;;;;;;;4.00;4.00;;;;;23.08;56.92;100556.91;4976122;28;45446;-63
2022/09/07 00:44:43;;;;;;;;;4.50;4.50;;;;;23.08;57.22;100562.28;4976947;28;45456;-63
2022/09/07 00:47:33;;;;;;;;;4.00;4.00;;;;;23.07;56.67;100559.72;4976944;28;45445;-63
2022/09/07 00:50:04;;;;;;;;;5.00;3.00;;;;;23.05;56.84;100562.56;4976757;28;45422;-63
2022/09/07 00:52:31;;;;;;;;;6.50;5.00;;;;;23.04;57.35;100565.34;4976956;28;45432;-63
2022/09/07 00:55:04;;;;;;;;;4.50;4.00;;;;;22.93;56.88;100551.03;4976845;28;45474;-63
2022/09/07 00:57:32;;;;;;;;;4.75;4.75;;;;;22.99;57.07;100562.22;4976657;28;45452;-63
2022/09/07 00:59:58;;;;;;;;;5.00;5.00;;;;;22.97;56.93;100559.69;4976605;28;45468;-63
2022/09/07 01:02:24;;;;;;;;;5.00;4.75;;;;;22.95;56.98;100556.25;4976938;28;45454;-64
2022/09/07 01:04:55;;;;;;;;;5.00;5.00;;;;;22.96;56.54;100557.97;4976808;28;45385;-63
2022/09/07 01:07:21;;;;;;;;;7.50;6.00;;;;;22.92;56.80;100556.53;4976387;28;45536;-63
2022/09/07 01:09:47;;;;;;;;;3.00;3.00;;;;;22.92;56.84;100553.84;4976498;28;45453;-63
2022/09/07 01:12:13;;;;;;;;;7.00;7.00;;;;;22.86;56.86;100546.34;4976440;28;45354;-63
2022/09/07 01:14:48;;;;;;;;;4.00;4.00;;;;;22.85;57.10;100561.56;4976479;28;45365;-63
2022/09/07 01:17:50;;;;;;;;;3.75;3.75;;;;;22.87;57.43;100559.63;4977015;28;46107;-63
2022/09/07 01:20:24;;;;;;;;;3.00;3.00;;;;;22.82;57.35;100563.69;4976432;28;45433;-63
2022/09/07 01:23:10;;;;;;;;;3.25;3.25;;;;;22.79;57.31;100572.84;4976507;28;45452;-63
2022/09/07 01:25:45;;;;;;;;;5.25;5.25;;;;;22.78;57.49;100557.72;4976357;28;45481;-64
2022/09/07 01:28:19;;;;;;;;;5.00;5.00;;;;;22.78;57.62;100562.25;4976183;28;45516;-64
2022/09/07 01:30:55;;;;;;;;;3.00;3.00;;;;;22.72;57.48;100555.59;4976087;28;45453;-64
2022/09/07 01:33:50;;;;;;;;;4.00;2.75;;;;;22.75;56.81;100549.94;4976462;28;45413;-65
2022/09/07 01:36:47;;;;;;;;;3.75;3.25;;;;;22.76;57.19;100550.81;4976392;28;45389;-64
2022/09/07 01:39:13;;;;;;;;;3.00;3.00;;;;;22.62;57.14;100534.09;4974941;28;46439;-64
2022/09/07 01:41:53;;;;;;;;;2.25;2.25;;;;;22.68;56.33;100544.28;4976165;28;45334;-64
2022/09/07 01:44:40;;;;;;;;;3.25;3.25;;;;;22.65;56.54;100552.59;4976290;28;45464;-64
2022/09/07 01:47:21;;;;;;;;;2.75;2.75;;;;;22.63;56.21;100551.88;4975994;28;45470;-64
2022/09/07 01:49:56;;;;;;;;;2.00;2.00;;;;;22.58;56.56;100555.94;4975957;28;45536;-64
2022/09/07 01:52:35;;;;;;;;;3.00;2.50;;;;;22.54;56.72;100551.81;4975909;28;45529;-64
2022/09/07 01:55:20;;;;;;;;;4.00;2.25;;;;;22.51;56.25;100552.94;4976050;28;45524;-64
2022/09/07 01:58:12;;;;;;;;;2.00;2.00;;;;;22.44;56.22;100546.41;4975879;28;45409;-64
2022/09/07 02:00:42;;;;;;;;;5.00;2.00;;;;;22.43;56.22;100548.25;4966817;28;46065;-64
2022/09/07 02:03:19;;;;;;;;;4.25;3.25;;;;;22.39;55.55;100540.59;4975699;28;45377;-64
2022/09/07 02:06:14;;;;;;;;;2.00;2.00;;;;;22.41;55.76;100552.06;4976118;28;45404;-64
2022/09/07 02:08:44;;;;;;;;;4.75;4.25;;;;;22.38;56.04;100547.81;4975329;28;45548;-64
2022/09/07 02:11:16;;;;;;;;;2.75;2.00;;;;;22.38;56.03;100539.75;4975619;28;45489;-63
2022/09/07 02:13:51;;;;;;;;;4.00;4.00;;;;;22.35;56.45;100542.69;4958280;28;45937;-63
2022/09/07 02:16:24;;;;;;;;;3.00;3.00;;;;;22.34;56.36;100535.63;4976537;28;45369;-63
2022/09/07 02:18:55;;;;;;;;;2.00;2.00;;;;;22.31;56.28;100530.53;4975875;28;45424;-63
2022/09/07 02:21:30;;;;;;;;;2.50;2.50;;;;;22.30;56.53;100534.22;4975753;28;46225;-63
2022/09/07 02:24:03;;;;;;;;;2.00;2.00;;;;;22.22;56.07;100528.66;4975565;28;45542;-63
2022/09/07 02:26:28;;;;;;;;;2.75;2.00;;;;;22.16;55.50;100529.97;4975710;28;45580;-63
2022/09/07 02:28:54;;;;;;;;;3.00;2.00;;;;;22.17;55.59;100536.22;4975663;28;45577;-63
2022/09/07 02:31:20;;;;;;;;;3.00;2.75;;;;;22.16;55.69;100529.13;4975485;28;46224;-63
2022/09/07 02:33:46;;;;;;;;;3.00;3.00;;;;;22.19;55.63;100537.81;4958193;28;45435;-63
2022/09/07 02:36:15;;;;;;;;;2.50;2.50;;;;;22.19;55.40;100536.94;4975642;28;45369;-63
2022/09/07 02:38:40;;;;;;;;;1.25;1.25;;;;;22.17;55.56;100541.56;4957944;28;45468;-63
2022/09/07 02:41:30;;;;;;;;;1.00;1.00;;;;;22.14;55.38;100533.75;4975399;28;46285;-63
2022/09/07 02:43:57;;;;;;;;;2.00;2.00;;;;;22.12;55.14;100531.22;4975401;28;45495;-64
2022/09/07 02:46:34;;;;;;;;;1.50;1.50;;;;;22.06;55.49;100532.59;4975391;28;45519;-63
2022/09/07 02:49:20;;;;;;;;;2.50;2.50;;;;;22.05;55.23;100525.53;4975530;28;45360;-63
2022/09/07 02:51:58;;;;;;;;;4.00;2.00;;;;;22.04;55.25;100529.19;4957633;28;46165;-63
2022/09/07 02:54:57;;;;;;;;;2.00;2.00;;;;;22.01;55.29;100534.81;4975194;28;45425;-62
2022/09/07 02:57:58;;;;;;;;;3.00;3.00;;;;;22.03;55.32;100532.00;4975400;28;45438;-64
2022/09/07 03:00:24;;;;;;;;;3.00;3.00;;;;;22.01;55.28;100528.63;4975422;28;45501;-64
2022/09/07 03:03:30;;;;;;;;;1.50;1.50;;;;;21.97;55.00;100522.66;4974725;28;45475;-64
2022/09/07 03:06:03;;;;;;;;;2.00;2.00;;;;;22.00;55.08;100537.63;4968089;28;45454;-64
2022/09/07 03:08:35;;;;;;;;;0.00;0.00;;;;;21.92;55.08;100537.41;4978461;28;45354;-63
2022/09/07 03:11:02;;;;;;;;;2.00;2.00;;;;;21.87;55.32;100536.94;4978324;28;45433;-62
2022/09/07 03:13:28;;;;;;;;;1.50;1.50;;;;;21.89;55.06;100532.31;4978427;28;46173;-62
2022/09/07 03:15:55;;;;;;;;;2.25;2.25;;;;;21.92;54.96;100535.56;4978784;28;45515;-63
2022/09/07 03:18:21;;;;;;;;;1.25;1.25;;;;;21.94;54.76;100536.31;4978514;28;45419;-63
2022/09/07 03:20:46;;;;;;;;;4.00;2.00;;;;;21.89;54.97;100533.16;4978425;28;45590;-63
2022/09/07 03:23:12;;;;;;;;;1.75;1.75;;;;;21.83;55.22;100539.88;4978221;28;45732;-63
2022/09/07 03:25:37;;;;;;;;;2.00;2.00;;;;;21.82;55.19;100532.84;4977901;28;48702;-64
2022/09/07 03:28:03;;;;;;;;;2.25;2.25;;;;;21.84;55.22;100543.41;4978207;28;45470;-64
2022/09/07 03:30:29;;;;;;;;;3.00;3.00;;;;;21.84;55.02;100538.06;4978325;28;45362;-63
2022/09/07 03:32:54;;;;;;;;;1.00;1.00;;;;;21.82;55.00;100537.34;4978073;28;45375;-62
2022/09/07 03:35:19;;;;;;;;;3.50;2.00;;;;;21.83;55.02;100547.91;4977990;28;45463;-64
2022/09/07 03:37:45;;;;;;;;;3.00;2.25;;;;;21.80;55.05;100558.88;4978103;28;45352;-64
2022/09/07 03:40:12;;;;;;;;;3.00;2.00;;;;;21.79;55.18;100551.00;4978172;28;45357;-64
2022/09/07 03:42:37;;;;;;;;;2.00;2.00;;;;;21.81;55.22;100555.22;4977721;28;47227;-64
2022/09/07 03:45:05;;;;;;;;;1.00;1.00;;;;;21.78;55.71;100546.59;4977786;28;45462;-64
2022/09/07 03:47:33;;;;;;;;;2.75;2.75;;;;;21.70;56.01;100549.91;4977917;28;45397;-63
2022/09/07 03:49:58;;;;;;;;;2.25;2.25;;;;;21.70;55.71;100549.06;4977739;28;45628;-63
2022/09/07 03:52:23;;;;;;;;;1.75;1.75;;;;;21.64;55.75;100553.09;4977316;28;55086;-63
2022/09/07 03:54:49;;;;;;;;;2.00;2.00;;;;;21.63;55.72;100559.44;4977555;28;45330;-63
2022/09/07 03:57:14;;;;;;;;;4.00;3.00;;;;;21.59;55.79;100558.81;4977845;28;45790;-63
2022/09/07 03:59:39;;;;;;;;;1.00;1.00;;;;;21.60;55.41;100562.34;4977771;28;45365;-64
2022/09/07 04:02:05;;;;;;;;;2.75;2.75;;;;;21.57;55.72;100551.91;4977478;28;45421;-63
2022/09/07 04:04:30;;;;;;;;;1.00;1.00;;;;;21.56;55.62;100568.94;4977685;28;45376;-63
2022/09/07 04:06:56;;;;;;;;;2.00;2.00;;;;;21.50;55.53;100566.78;4977421;28;45477;-63
2022/09/07 04:09:21;;;;;;;;;1.75;1.75;;;;;21.43;55.53;100561.06;4977677;28;45548;-63
2022/09/07 04:11:46;;;;;;;;;3.25;3.25;;;;;21.50;55.83;100580.16;4977282;28;45425;-63
2022/09/07 04:14:12;;;;;;;;;4.50;3.00;;;;;21.44;56.04;100581.50;4977316;28;45482;-63
2022/09/07 04:16:37;;;;;;;;;1.75;1.75;;;;;21.45;55.48;100585.88;4977420;28;45478;-62
2022/09/07 04:19:04;;;;;;;;;4.00;2.75;;;;;21.42;55.92;100586.13;4976727;28;45457;-64
2022/09/07 04:21:31;;;;;;;;;1.00;1.00;;;;;21.31;56.05;100575.41;4977165;28;46315;-63
2022/09/07 04:23:57;;;;;;;;;2.75;1.75;;;;;21.26;56.18;100572.25;4977132;28;45412;-63
2022/09/07 04:26:28;;;;;;;;;2.00;2.00;;;;;21.33;56.13;100593.06;4977092;28;45408;-63
2022/09/07 04:28:54;;;;;;;;;1.50;1.50;;;;;21.31;56.01;100588.78;4976678;28;45547;-63
2022/09/07 04:31:20;;;;;;;;;2.00;2.00;;;;;21.29;55.80;100588.06;4977111;28;45512;-63
2022/09/07 04:33:47;;;;;;;;;2.00;2.00;;;;;21.26;55.70;100585.63;4977177;28;45538;-63
2022/09/07 04:36:14;;;;;;;;;2.00;1.25;;;;;21.19;55.94;100586.09;4977146;28;45383;-63
2022/09/07 04:38:40;;;;;;;;;2.00;2.00;;;;;21.18;55.81;100581.75;4977203;28;45438;-63
2022/09/07 04:41:13;;;;;;;;;1.00;1.00;;;;;21.11;56.27;100577.00;4976988;28;46965;-63
2022/09/07 04:43:39;;;;;;;;;3.00;2.00;;;;;21.12;56.25;100589.41;4959643;28;45395;-64
2022/09/07 04:46:07;;;;;;;;;2.00;2.00;;;;;21.08;56.25;100579.94;4977152;28;45507;-64
2022/09/07 04:48:33;;;;;;;;;1.00;1.00;;;;;21.02;56.57;100583.09;4976975;28;45670;-64
2022/09/07 04:51:06;;;;;;;;;1.50;1.50;;;;;21.10;56.32;100584.19;4976712;28;45536;-64
2022/09/07 04:53:33;;;;;;;;;1.50;1.50;;;;;21.15;55.98;100589.16;4977020;28;45490;-65
2022/09/07 04:55:59;;;;;;;;;3.00;2.00;;;;;21.12;56.13;100590.25;4976986;28;45446;-64
2022/09/07 04:58:24;;;;;;;;;4.00;4.00;;;;;21.15;56.24;100583.81;4976758;28;45556;-64
2022/09/07 05:00:50;;;;;;;;;2.50;2.25;;;;;;;;4976633;28;45464;-65
2022/09/07 05:03:15;;;;;;;;;2.00;2.00;;;;;21.09;56.32;100578.94;4976762;28;45415;-64
2022/09/07 05:05:41;;;;;;;;;2.00;1.25;;;;;21.08;56.15;100579.94;4976721;28;45809;-64
2022/09/07 05:08:06;;;;;;;;;1.50;1.50;;;;;21.06;56.49;100584.53;4976617;28;45591;-64
2022/09/07 05:10:32;;;;;;;;;0.00;0.00;;;;;;;;4976341;28;45480;-64
2022/09/07 05:12:57;;;;;;;;;2.50;1.75;;;;;21.12;56.34;100592.09;4976441;28;45398;-64
2022/09/07 05:15:22;;;;;;;;;2.00;2.00;;;;;21.12;56.43;100589.41;4976467;28;45422;-64
2022/09/07 05:17:49;;;;;;;;;2.50;2.50;;;;;21.10;56.30;100583.34;4977130;28;45387;-64
2022/09/07 05:20:15;;;;;;;;;1.75;1.75;;;;;21.09;56.47;100595.88;4976218;28;45505;-64
2022/09/07 05:22:40;;;;;;;;;3.00;3.00;;;;;;;;4976484;28;45462;-63
2022/09/07 05:25:07;;;;;;;;;4.00;4.00;;;;;21.04;56.39;100592.69;4976531;28;45437;-64
2022/09/07 05:27:32;;;;;;;;;5.25;3.00;;;;;21.10;56.46;100607.41;4976149;28;45433;-64
2022/09/07 05:29:58;;;;;;;;;3.50;2.25;;;;;21.08;56.42;100602.16;4975567;28;46036;-64
2022/09/07 05:32:23;;;;;;;;;2.00;2.00;;;;;;;;4976056;28;45561;-64
2022/09/07 05:34:49;;;;;;;;;3.00;3.00;;;;;21.03;56.64;100615.03;4976186;28;45453;-64
2022/09/07 05:37:15;;;;;;;;;1.50;1.50;;;;;20.94;56.21;100605.94;4976086;28;45584;-64
2022/09/07 05:39:40;;;;;;;;;2.00;2.00;;;;;20.95;56.56;100602.31;4975104;28;45444;-64
2022/09/07 05:42:05;;;;;;;;;2.25;2.25;;;;;20.94;57.01;100603.25;4976005;28;45458;-64
2022/09/07 05:44:31;;;;;;;;;2.00;1.75;;;;;20.93;57.03;100596.22;4975849;28;45454;-64
2022/09/07 05:46:56;;;;;;;;;2.75;2.75;;;;;20.92;56.99;100593.66;4975943;28;45555;-64
2022/09/07 05:49:22;;;;;;;;;2.25;2.25;;;;;20.94;56.97;100597.91;4975952;28;46320;-64
2022/09/07 05:51:47;;;;;;;;;1.25;1.00;;;;;20.94;57.15;100599.75;4975831;28;45402;-64
2022/09/07 05:54:13;;;;;;;;;4.00;3.00;;;;;20.88;57.31;100598.41;4975961;28;45456;-63
2022/09/07 05:56:38;;;;;;;;;2.25;2.25;;;;;20.86;57.15;100592.31;4975964;28;45404;-57
2022/09/07 05:59:04;;;;;;;;;3.00;3.00;;;;;20.91;57.26;100597.31;4975672;28;45661;-59
2022/09/07 06:01:30;;;;;;;;;3.00;3.00;;;;;20.94;57.07;100607.75;4975746;28;45393;-60
2022/09/07 06:03:56;;;;;;;;;2.25;2.25;;;;;20.92;57.32;100609.69;4975308;28;45398;-60
2022/09/07 06:06:21;;;;;;;;;5.00;3.00;;;;;20.93;57.08;100606.91;4975412;28;45434;-60
2022/09/07 06:08:51;;;;;;;;;2.00;1.25;;;;;20.84;57.31;100602.28;4975566;28;46343;-60
2022/09/07 06:11:19;;;;;;;;;3.25;3.25;;;;;20.86;57.71;100602.16;4954682;28;45401;-59
2022/09/07 06:13:45;;;;;;;;;2.25;2.25;;;;;20.85;57.16;100593.31;4956196;28;45497;-59
2022/09/07 06:16:12;;;;;;;;;1.50;1.50;;;;;20.94;56.98;100608.59;4956484;28;45387;-59
2022/09/07 06:18:43;;;;;;;;;2.00;2.00;;;;;20.91;57.73;100606.19;4956077;28;46243;-59
2022/09/07 06:21:11;;;;;;;;;5.00;3.75;;;;;20.87;57.45;100611.88;4955699;28;45531;-59
2022/09/07 06:23:38;;;;;;;;;3.75;3.00;;;;;20.91;57.78;100605.34;4955937;28;45456;-59
2022/09/07 06:26:05;;;;;;;;;4.25;3.75;;;;;20.91;57.46;100616.03;4955935;28;45579;-59
2022/09/07 06:28:35;;;;;;;;;5.00;3.75;;;;;20.86;57.53;100611.03;4954334;28;47193;-59
2022/09/07 06:31:07;;;;;;;;;2.75;1.25;;;;;20.87;58.03;100609.22;4955675;28;45464;-59
2022/09/07 06:33:33;;;;;;;;;2.75;2.75;;;;;20.89;57.88;100613.47;4956065;28;45417;-60
2022/09/07 06:36:04;;;;;;;;;2.25;2.25;;;;;20.88;57.72;100614.44;4955953;28;45532;-59
2022/09/07 06:38:32;;;;;;;;;4.50;3.25;;;;;20.88;58.32;100611.78;4955773;28;45992;-61
2022/09/07 06:41:07;;;;;;;;;2.25;2.25;;;;;20.92;58.14;100618.56;4955375;28;45534;-60
2022/09/07 06:43:32;;;;;;;;;3.00;3.00;;;;;20.88;58.13;100610.94;4959239;28;45403;-59
2022/09/07 06:45:58;;;;;;;;;2.00;2.00;;;;;20.92;57.67;100617.72;4959037;28;45309;-60
2022/09/07 06:48:24;;;;;;;;;4.00;3.50;;;;;20.87;57.51;100603.84;4958986;28;45971;-59
2022/09/07 06:51:01;;;;;;;;;3.75;3.75;;;;;20.87;57.84;100625.25;4959078;28;45388;-60
2022/09/07 06:53:31;;;;;;;;;8.00;5.00;;;;;20.86;58.42;100615.53;4959187;28;45561;-64
2022/09/07 06:55:58;;;;;;;;;7.00;6.33;;;;;20.88;57.86;100624.28;4959148;28;45506;-61
2022/09/07 06:58:26;;;;;;;;;2.75;2.75;;;;;20.87;58.37;100611.88;4958837;28;45581;-60
2022/09/07 07:00:52;;;;;;;;;2.50;2.50;;;;;20.84;58.40;100610.28;4958973;28;45456;-59
2022/09/07 07:03:18;;;;;;;;;7.33;5.33;;;;;20.88;58.68;100618.94;4958949;28;45399;-62
2022/09/07 07:05:55;;;;;;;;;4.25;4.25;;;;;20.91;58.29;100610.69;4958826;28;45436;-59
2022/09/07 07:08:23;;;;;;;;;6.00;5.00;;;;;20.95;58.55;100610.34;4958522;28;45446;-59
2022/09/07 07:10:49;;;;;;;;;8.00;8.00;;;;;20.99;58.05;100599.38;4967059;28;45436;-59
2022/09/07 07:13:15;;;;;;;;;3.50;2.25;;;;;21.07;57.82;100602.31;4978413;28;45433;-59
2022/09/07 07:15:41;;;;;;;;;5.33;5.33;;;;;21.09;57.93;100600.34;4978375;28;45402;-59
2022/09/07 07:18:06;;;;;;;;;4.25;4.25;;;;;21.08;57.96;100599.50;4978480;28;46386;-59
2022/09/07 07:20:34;;;;;;;;;6.25;3.75;;;;;21.07;58.30;100595.13;4977841;28;45448;-59
2022/09/07 07:23:00;;;;;;;;;6.00;3.00;;;;;21.08;57.97;100602.16;4977955;28;45541;-59
2022/09/07 07:25:25;;;;;;;;;6.25;4.25;;;;;21.08;58.34;100609.34;4978014;28;45696;-60
2022/09/07 07:27:50;;;;;;;;;2.25;2.00;;;;;21.12;58.28;100613.50;4977937;28;45946;-59
2022/09/07 07:30:17;;;;;;;;;4.25;4.25;;;;;21.20;57.69;100608.38;4977877;28;45504;-59
2022/09/07 07:32:44;;;;;;;;;5.00;3.25;;;;;21.24;57.85;100599.13;4978065;28;45471;-59
2022/09/07 07:35:10;;;;;;;;;6.00;5.00;;;;;21.25;57.75;100603.53;4977613;28;45361;-59
2022/09/07 07:37:36;;;;;;;;;3.00;3.00;;;;;21.29;58.07;100602.28;4977777;28;45405;-59
2022/09/07 07:40:04;;;;;;;;;8.67;7.33;;;;;21.33;57.65;100585.03;4977915;28;45396;-59
2022/09/07 07:42:31;;;;;;;;;3.00;3.00;;;;;21.32;58.00;100596.69;4977801;28;45463;-59
2022/09/07 07:44:56;;;;;;;;;4.75;4.25;;;;;21.35;57.79;100595.59;4977795;28;45454;-59
2022/09/07 07:47:21;;;;;;;;;5.25;5.25;;;;;21.41;57.91;100597.78;4977459;28;45413;-59
2022/09/07 07:49:47;;;;;;;;;8.00;6.50;;;;;21.44;57.77;100607.41;4977654;28;45329;-59
2022/09/07 07:52:12;;;;;;;;;3.00;3.00;;;;;21.45;57.71;100599.25;4977412;28;45329;-59
2022/09/07 07:54:38;;;;;;;;;2.00;2.00;;;;;21.40;58.00;100588.06;4977666;28;45599;-59
2022/09/07 07:57:05;;;;;;;;;3.00;3.00;;;;;21.48;57.86;100590.97;4977285;28;48309;-59
2022/09/07 07:59:30;;;;;;;;;2.50;2.50;;;;;21.49;57.95;100594.50;4977494;28;45636;-59
2022/09/07 08:01:56;;;;;;;;;2.25;2.25;;;;;21.49;57.89;100590.00;4977819;28;45495;-59
2022/09/07 08:04:21;;;;;;;;;7.75;3.75;;;;;21.53;57.91;100598.63;4977433;28;45380;-60
2022/09/07 08:06:47;;;;;;;;;4.00;3.00;;;;;21.55;57.89;100591.34;4977335;28;45843;-59
2022/09/07 08:09:12;;;;;;;;;6.25;4.00;;;;;21.55;57.99;100581.47;4977505;28;45477;-59
2022/09/07 08:11:39;;;;;;;;;7.00;6.00;;;;;21.57;58.02;100584.00;4977469;28;45430;-60
2022/09/07 08:14:05;;;;;;;;;3.00;3.00;;;;;21.60;57.96;100584.63;4977433;28;45594;-59
2022/09/07 08:16:31;;;;;;;;;5.00;3.00;;;;;21.61;57.74;100580.13;4977640;28;46101;-59
2022/09/07 08:18:57;;;;;;;;;4.75;4.00;;;;;21.64;57.94;100579.03;4977147;28;45465;-60
2022/09/07 08:21:24;;;;;;;;;5.00;5.00;;;;;21.65;58.20;100586.91;4959655;28;45472;-61
2022/09/07 08:23:49;;;;;;;;;35.00;31.67;;;;;21.64;58.23;100584.38;4977186;28;45406;-60
2022/09/07 08:26:14;;;;;;;;;17.00;14.00;;;;;21.66;58.02;100583.28;4976759;28;45397;-60
2022/09/07 08:28:42;;;;;;;;;7.00;6.33;;;;;21.67;57.95;100576.09;4977161;28;45374;-60
2022/09/07 08:31:13;;;;;;;;;4.50;3.25;;;;;21.67;57.99;100584.13;4977247;28;45514;-60
2022/09/07 08:33:38;;;;;;;;;5.75;3.25;;;;;21.69;58.36;100583.03;4977037;28;45399;-60
2022/09/07 08:36:25;;;;;;;;;3.75;3.00;;;;;21.73;58.21;100592.47;4976781;28;46028;-59
2022/09/07 08:38:51;;;;;;;;;3.00;3.00;;;;;21.73;58.12;100587.13;4976416;28;45398;-59
2022/09/07 08:41:46;;;;;;;;;9.33;9.33;;;;;21.70;58.55;100590.06;4976640;28;45502;-59
2022/09/07 08:44:17;;;;;;;;;4.50;4.00;;;;;21.75;58.41;100593.22;4976830;28;45362;-60
2022/09/07 08:46:53;;;;;;;;;4.50;3.50;;;;;21.79;57.95;100592.00;4976406;28;46453;-60
2022/09/07 08:49:41;;;;;;;;;4.50;4.50;;;;;21.84;58.18;100594.28;4976662;28;45478;-60
2022/09/07 08:52:16;;;;;;;;;13.67;10.00;;;;;21.87;58.23;100602.09;4976780;28;45436;-60
2022/09/07 08:54:54;;;;;;;;;7.75;5.75;;;;;21.90;57.91;100599.16;4976773;28;45370;-59
2022/09/07 08:57:26;;;;;;;;;4.25;4.00;;;;;21.96;58.12;100600.47;4976517;28;45543;-59
2022/09/07 09:00:06;;;;;;;;;2.75;2.75;;;;;22.00;58.10;100605.44;4976702;28;45458;-59
2022/09/07 09:02:31;;;;;;;;;9.00;5.75;;;;;22.09;57.36;100595.78;4975950;28;45501;-59
2022/09/07 09:04:56;;;;;;;;;8.25;6.50;;;;;22.05;57.94;100586.28;4975685;28;45577;-59
2022/09/07 09:07:29;;;;;;;;;4.75;4.75;;;;;22.09;58.22;100586.91;4975470;28;45993;-59
2022/09/07 09:10:32;;;;;;;;;3.25;2.25;;;;;22.17;58.17;100587.94;4975378;28;45632;-59
2022/09/07 09:13:17;;;;;;;;;3.25;3.25;;;;;22.20;57.61;100577.00;4958862;28;45577;-60
2022/09/07 09:15:57;;;;;;;;;5.25;5.25;;;;;22.25;57.44;100571.25;4976524;28;45361;-59
2022/09/07 09:18:37;;;;;;;;;4.50;4.50;;;;;22.31;57.50;100584.13;4976763;28;46239;-59
2022/09/07 09:21:06;;;;;;;;;4.25;4.25;;;;;22.32;56.84;100584.97;4976438;28;45477;-59
2022/09/07 09:23:40;;;;;;;;;3.00;3.00;;;;;22.31;57.30;100572.56;4976256;28;45603;-59
2022/09/07 09:26:15;;;;;;;;;5.50;5.25;;;;;22.32;57.09;100580.47;4976199;28;45516;-59
2022/09/07 09:28:40;;;;;;;;;3.50;3.50;;;;;22.34;57.10;100574.97;4976097;28;46112;-59
2022/09/07 09:31:16;;;;;;;;;3.50;3.50;;;;;22.36;56.72;100578.38;4976343;28;45463;-59
2022/09/07 09:33:41;;;;;;;;;4.75;4.00;;;;;22.38;56.97;100582.63;4976456;28;45445;-60
2022/09/07 09:36:24;;;;;;;;;3.50;3.50;;;;;22.44;56.70;100578.59;4976094;28;45513;-59
2022/09/07 09:38:49;;;;;;;;;6.50;5.00;;;;;22.49;56.43;100579.88;4975938;28;45951;-59
2022/09/07 09:41:15;;;;;;;;;3.00;3.00;;;;;22.51;56.04;100571.69;4975665;28;53779;-60
2022/09/07 09:43:45;;;;;;;;;7.50;5.00;;;;;22.61;55.98;100580.66;4976115;28;45486;-59
2022/09/07 09:46:35;;;;;;;;;6.25;3.75;;;;;22.63;55.84;100564.44;4976084;28;45340;-59
2022/09/07 09:49:11;;;;;;;;;5.75;5.00;;;;;22.64;55.63;100564.28;4976084;28;45482;-60
2022/09/07 09:51:44;;;;;;;;;3.25;3.25;;;;;22.67;55.78;100566.69;4975786;28;45437;-60
2022/09/07 09:54:28;;;;;;;;;2.25;2.25;;;;;22.71;55.52;100561.94;4975952;28;45507;-59
2022/09/07 09:56:53;;;;;;;;;5.75;4.25;;;;;22.67;55.59;100553.28;4975811;28;45563;-59
2022/09/07 09:59:26;;;;;;;;;3.25;3.25;;;;;22.68;55.42;100557.69;4975689;28;45524;-59
2022/09/07 10:01:52;;;;;;;;;3.75;3.25;;;;;22.65;55.43;100557.13;4974930;28;45512;-59
2022/09/07 10:04:24;;;;;;;;;8.00;3.25;;;;;22.67;55.48;100557.81;4975874;28;45370;-60
2022/09/07 10:06:52;;;;;;;;;5.25;5.00;;;;;22.67;55.25;100555.13;4975607;28;45483;-59
2022/09/07 10:09:34;;;;;;;;;4.25;4.25;;;;;22.65;55.44;100554.44;4975645;28;46196;-59
2022/09/07 10:12:02;;;;;;;;;7.25;6.75;;;;;22.63;55.02;100543.84;4975491;28;45539;-59
2022/09/07 10:14:29;;;;;;;;;4.50;3.50;;;;;22.74;54.87;100550.94;4976235;28;45597;-60
2022/09/07 10:16:56;;;;;;;;;3.00;3.00;;;;;22.75;54.11;100554.47;4979783;28;45425;-59
2022/09/07 10:19:28;;;;;;;;;4.00;3.00;;;;;22.74;53.98;100550.94;4978884;28;46006;-60
2022/09/07 10:21:56;;;;;;;;;4.75;4.75;;;;;22.80;54.09;100557.59;4979136;28;45445;-59
2022/09/07 10:24:29;;;;;;;;;2.25;2.25;;;;;22.80;53.65;100537.00;4979116;28;45370;-59
2022/09/07 10:26:55;;;;;;;;;3.00;3.00;;;;;22.78;53.93;100549.69;4978967;28;45558;-59
2022/09/07 10:29:26;;;;;;;;;2.00;2.00;;;;;22.80;53.71;100546.88;4978649;28;46092;-59
2022/09/07 10:31:57;;;;;;;;;4.00;4.00;;;;;22.84;53.90;100556.38;4978899;28;45353;-59
2022/09/07 10:34:47;;;;;;;;;4.00;4.00;;;;;22.86;53.73;100546.34;4979084;28;45302;-60
2022/09/07 10:37:24;;;;;;;;;4.25;3.75;;;;;22.83;53.84;100543.91;4978792;28;45448;-61
2022/09/07 10:40:11;;;;;;;;;5.00;4.00;;;;;22.82;54.19;100545.75;4978579;28;46198;-61
2022/09/07 10:42:45;;;;;;;;;4.50;3.75;;;;;22.86;54.23;100535.59;4978210;28;45418;-61
2022/09/07 10:45:26;;;;;;;;;6.50;3.75;;;;;22.90;54.13;100535.22;4978816;28;45530;-60
2022/09/07 10:48:13;;;;;;;;;4.75;3.25;;;;;22.90;53.83;100537.03;4978446;28;45441;-60
2022/09/07 10:50:50;;;;;;;;;8.25;3.50;;;;;22.96;54.04;100541.88;4978022;28;45429;-60
2022/09/07 10:53:25;;;;;;;;;4.50;2.75;;;;;22.99;53.54;100543.47;4977900;28;45527;-60
2022/09/07 10:56:11;;;;;;;;;4.50;4.00;;;;;23.04;53.74;100535.84;4978537;28;45533;-60
2022/09/07 10:58:55;;;;;;;;;3.00;3.00;;;;;23.13;53.36;100546.63;4978033;28;45584;-60
2022/09/07 11:01:20;;;;;;;;;5.75;5.75;;;;;23.13;53.58;100538.56;4977947;28;47102;-60
2022/09/07 11:03:52;;;;;;;;;3.50;3.50;;;;;23.14;53.29;100529.53;4978314;28;45448;-60
2022/09/07 11:06:21;;;;;;;;;4.25;3.75;;;;;23.18;53.04;100529.25;4978134;28;45378;-60
2022/09/07 11:08:57;;;;;;;;;9.75;8.75;;;;;23.21;52.92;100531.66;4960009;28;45616;-63
2022/09/07 11:11:39;;;;;;;;;5.75;5.75;;;;;23.21;52.88;100523.59;4954085;28;45441;-62
2022/09/07 11:14:20;;;;;;;;;5.75;4.00;;;;;23.22;52.11;100525.31;4958507;28;45420;-61
2022/09/07 11:16:54;;;;;;;;;7.75;5.00;;;;;23.27;51.28;100528.44;4958314;28;45552;-61
2022/09/07 11:19:27;;;;;;;;;4.25;4.25;;;;;23.29;50.21;100529.13;4956893;28;45560;-61
2022/09/07 11:22:02;;;;;;;;;2.00;2.00;;;;;23.20;49.45;100509.34;4958494;28;45382;-63
2022/09/07 11:24:35;;;;;;;;;4.25;4.25;;;;;23.21;49.70;100521.75;4958226;28;45448;-67
2022/09/07 11:27:11;;;;;;;;;5.25;5.00;;;;;23.20;49.42;100517.41;4958166;28;45552;-63
2022/09/07 11:30:05;;;;;;;;;19.50;18.25;;;;;23.19;49.29;100512.19;4959230;28;45328;-65
2022/09/07 11:32:36;;;;;;;;;8.25;6.00;;;;;23.04;49.94;100504.50;4958512;28;45473;-64
2022/09/07 11:35:30;;;;;;;;;5.25;4.50;;;;;23.07;50.43;100511.44;4958853;28;45385;-63
2022/09/07 11:38:02;;;;;;;;;4.50;3.75;;;;;23.05;50.04;100506.22;4951734;28;45478;-63
2022/09/07 11:40:38;;;;;;;;;3.50;3.50;;;;;23.07;50.09;100495.34;4958102;28;45471;-63
2022/09/07 11:43:21;;;;;;;;;4.50;2.25;;;;;23.07;50.11;100500.69;4958752;28;45947;-64